createdAt,value
2022-08-11T00:02:12.744Z,72.90
2022-08-11T00:05:35.960Z,72.90
2022-08-11T00:08:02.759Z,72.90
2022-08-11T00:10:41.895Z,72.70
2022-08-11T00:13:17.469Z,72.60
2022-08-11T00:15:45.320Z,72.40
2022-08-11T00:18:28.105Z,72.10
2022-08-11T00:20:59.551Z,71.80
2022-08-11T00:23:27.160Z,71.60
2022-08-11T00:25:57.498Z,71.50
2022-08-11T00:28:43.587Z,71.30
2022-08-11T00:31:47.122Z,71.20
2022-08-11T00:34:34.013Z,71.00
2022-08-11T00:37:24.237Z,70.90
2022-08-11T00:46:01.532Z,70.70
2022-08-11T00:52:05.517Z,70.70
2022-08-11T00:55:09.643Z,70.60
2022-08-11T01:01:38.442Z,70.80
2022-08-11T01:05:02.992Z,70.80
2022-08-11T01:08:14.629Z,70.80
2022-08-11T01:17:50.069Z,71.10
2022-08-11T01:20:59.391Z,71.10
2022-08-11T01:23:57.028Z,71.00
2022-08-11T01:26:54.913Z,71.00
2022-08-11T01:29:21.533Z,71.00
2022-08-11T01:32:29.345Z,71.10
2022-08-11T01:35:30.036Z,70.90
2022-08-11T01:38:21.583Z,71.10
2022-08-11T01:41:06.882Z,71.20
2022-08-11T01:54:44.282Z,71.90
2022-08-11T01:57:40.857Z,72.20
2022-08-11T02:00:29.094Z,72.50
2022-08-11T02:03:24.386Z,72.70
2022-08-11T02:06:23.467Z,72.70
2022-08-11T02:09:20.400Z,72.90
2022-08-11T02:12:15.495Z,72.90
2022-08-11T02:15:39.324Z,72.90
2022-08-11T02:18:33.706Z,72.90
2022-08-11T02:21:12.334Z,72.80
2022-08-11T02:24:11.539Z,72.70
2022-08-11T02:26:57.840Z,72.70
2022-08-11T02:33:01.306Z,72.40
2022-08-11T02:38:51.089Z,72.30
2022-08-11T02:41:55.015Z,72.30
2022-08-11T02:44:55.437Z,72.10
2022-08-11T02:47:43.747Z,72.20
2022-08-11T02:50:20.565Z,72.10
2022-08-11T02:53:06.013Z,72.10
2022-08-11T02:56:08.279Z,72.00
2022-08-11T02:59:03.951Z,72.10
2022-08-11T03:01:51.116Z,72.10
2022-08-11T03:04:44.081Z,72.10
2022-08-11T03:07:47.961Z,72.10
2022-08-11T03:10:45.723Z,72.40
2022-08-11T03:13:19.165Z,72.60
2022-08-11T03:16:37.038Z,72.70
2022-08-11T03:20:01.567Z,72.90
2022-08-11T03:22:52.849Z,72.90
2022-08-11T03:25:57.122Z,73.00
2022-08-11T03:28:28.659Z,73.00
2022-08-11T03:31:38.819Z,73.10
2022-08-11T03:34:26.795Z,73.20
2022-08-11T03:37:19.293Z,73.30
2022-08-11T03:40:11.660Z,73.30
2022-08-11T03:43:26.586Z,73.40
2022-08-11T03:46:20.421Z,73.30
2022-08-11T03:49:32.966Z,73.40
2022-08-11T03:52:56.720Z,73.40
2022-08-11T03:55:45.155Z,73.50
2022-08-11T03:58:48.718Z,73.50
2022-08-11T04:01:55.248Z,73.50
2022-08-11T04:05:05.627Z,73.60
2022-08-11T04:08:00.136Z,73.70
2022-08-11T04:10:35.820Z,73.70
2022-08-11T04:13:21.064Z,73.80
2022-08-11T04:16:15.052Z,73.90
2022-08-11T04:19:14.108Z,73.80
2022-08-11T04:21:49.230Z,73.90
2022-08-11T04:24:38.225Z,73.90
2022-08-11T04:27:37.208Z,73.90
2022-08-11T04:30:14.031Z,73.90
2022-08-11T04:33:02.494Z,74.00
2022-08-11T04:39:21.726Z,74.00
2022-08-11T04:42:33.714Z,74.10
2022-08-11T04:45:35.494Z,74.10
2022-08-11T04:48:17.367Z,74.10
2022-08-11T04:51:17.239Z,74.20
2022-08-11T04:54:06.177Z,74.00
2022-08-11T04:56:53.909Z,74.00
2022-08-11T05:03:17.672Z,73.80
2022-08-11T05:06:11.333Z,73.50
2022-08-11T05:09:07.903Z,73.50
2022-08-11T05:12:02.354Z,73.30
2022-08-11T05:14:48.249Z,73.10
2022-08-11T05:17:25.415Z,73.00
2022-08-11T05:19:52.209Z,72.80
2022-08-11T05:22:35.986Z,72.80
2022-08-11T05:26:44.264Z,72.60
2022-08-11T05:28:18.141Z,72.40
2022-08-11T05:30:47.545Z,72.20
2022-08-11T05:33:50.866Z,72.00
2022-08-11T05:36:46.123Z,71.80
2022-08-11T05:39:43.818Z,71.60
2022-08-11T05:42:30.674Z,71.00
2022-08-11T05:45:50.715Z,71.00
2022-08-11T05:51:34.949Z,70.40
2022-08-11T05:59:41.834Z,69.90
2022-08-11T06:02:28.267Z,69.30
2022-08-11T06:05:04.525Z,68.80
2022-08-11T06:07:48.578Z,69.00
2022-08-11T06:10:43.018Z,68.60
2022-08-11T06:16:26.266Z,67.80
2022-08-11T06:18:53.966Z,67.70
2022-08-11T06:21:27.057Z,67.00
2022-08-11T06:24:14.608Z,67.00
2022-08-11T06:29:54.535Z,65.70
2022-08-11T06:32:46.089Z,65.60
2022-08-11T06:38:49.313Z,65.00
2022-08-11T06:42:05.188Z,64.30
2022-08-11T06:45:18.069Z,63.40
2022-08-11T06:47:46.792Z,62.40
2022-08-11T06:50:24.688Z,61.20
2022-08-11T06:53:11.655Z,60.40
2022-08-11T06:55:59.571Z,60.10
2022-08-11T06:58:51.188Z,60.60
2022-08-11T07:05:02.425Z,57.50
2022-08-11T07:07:47.139Z,58.30
2022-08-11T07:13:45.962Z,57.10
2022-08-11T07:16:18.331Z,56.80
2022-08-11T07:19:06.137Z,56.20
2022-08-11T07:22:00.485Z,55.00
2022-08-11T07:24:34.286Z,54.30
2022-08-11T07:27:20.575Z,54.00
2022-08-11T07:30:06.585Z,54.00
2022-08-11T07:32:37.514Z,53.80
2022-08-11T07:35:11.180Z,53.10
2022-08-11T07:38:03.494Z,52.10
2022-08-11T07:40:58.402Z,51.90
2022-08-11T07:43:25.225Z,50.60
2022-08-11T07:45:52.273Z,49.80
2022-08-11T07:48:35.641Z,50.20
2022-08-11T07:51:03.408Z,50.40
2022-08-11T07:54:07.718Z,50.50
2022-08-11T07:56:55.122Z,49.60
2022-08-11T08:00:03.491Z,49.20
2022-08-11T08:02:15.724Z,48.60
2022-08-11T08:04:46.847Z,47.60
2022-08-11T08:07:27.031Z,47.90
2022-08-11T08:09:58.275Z,48.10
2022-08-11T08:12:26.319Z,47.00
2022-08-11T08:14:58.895Z,47.40
2022-08-11T08:17:28.352Z,45.80
2022-08-11T08:20:12.141Z,44.80
2022-08-11T08:22:52.289Z,44.90
2022-08-11T08:25:31.762Z,45.00
2022-08-11T08:28:06.096Z,44.30
2022-08-11T08:30:33.695Z,45.30
2022-08-11T08:33:09.919Z,44.20
2022-08-11T08:35:37.629Z,44.60
2022-08-11T08:38:21.585Z,43.70
2022-08-11T08:46:58.745Z,43.80
2022-08-11T08:49:50.417Z,43.50
2022-08-11T08:52:37.181Z,43.10
2022-08-11T08:55:18.596Z,43.00
2022-08-11T08:57:48.397Z,43.20
2022-08-11T09:00:20.898Z,42.70
2022-08-11T09:02:50.203Z,42.40
2022-08-11T09:05:23.048Z,42.50
2022-08-11T09:07:54.252Z,41.90
2022-08-11T09:10:33.389Z,41.70
2022-08-11T09:13:00.936Z,40.40
2022-08-11T09:15:40.353Z,40.40
2022-08-11T09:18:07.874Z,39.70
2022-08-11T09:20:49.731Z,38.80
2022-08-11T09:24:06.827Z,38.40
2022-08-11T09:26:17.009Z,39.50
2022-08-11T09:28:45.392Z,38.30
2022-08-11T09:31:16.045Z,38.30
2022-08-11T09:33:44.476Z,38.50
2022-08-11T09:36:27.719Z,37.70
2022-08-11T09:38:55.901Z,38.00
2022-08-11T09:42:01.460Z,38.40
2022-08-11T09:44:26.575Z,38.30
2022-08-11T09:46:59.737Z,38.40
2022-08-11T09:49:39.903Z,36.80
2022-08-11T09:52:06.939Z,36.20
2022-08-11T09:54:43.528Z,37.70
2022-08-11T09:57:23.513Z,36.90
2022-08-11T10:00:13.228Z,37.00
2022-08-11T10:02:57.012Z,35.20
2022-08-11T10:05:24.580Z,36.00
2022-08-11T10:10:45.724Z,37.00
2022-08-11T10:14:32.180Z,37.20
2022-08-11T10:16:15.977Z,36.10
2022-08-11T10:18:58.422Z,35.90
2022-08-11T10:21:30.179Z,35.40
2022-08-11T10:24:10.557Z,35.10
2022-08-11T10:26:38.468Z,34.20
2022-08-11T10:31:57.667Z,34.50
2022-08-11T10:34:32.252Z,34.00
2022-08-11T10:37:17.077Z,34.00
2022-08-11T10:39:58.031Z,33.20
2022-08-11T10:42:41.453Z,33.00
2022-08-11T10:45:12.150Z,33.30
2022-08-11T10:47:38.957Z,34.20
2022-08-11T10:50:14.121Z,34.30
2022-08-11T10:52:41.177Z,33.20
2022-08-11T10:55:08.325Z,33.00
2022-08-11T10:57:35.291Z,33.50
2022-08-11T11:00:02.904Z,33.00
2022-08-11T11:02:31.274Z,32.60
2022-08-11T11:08:15.051Z,32.40
2022-08-11T11:10:58.748Z,32.10
2022-08-11T11:13:36.549Z,32.00
2022-08-11T11:16:03.432Z,32.20
2022-08-11T11:19:01.155Z,32.10
2022-08-11T11:21:37.000Z,33.00
2022-08-11T11:27:51.689Z,33.00
2022-08-11T11:30:18.936Z,33.20
2022-08-11T11:36:45.138Z,32.80
2022-08-11T11:39:12.237Z,32.20
2022-08-11T11:42:08.909Z,33.10
2022-08-11T11:44:38.344Z,33.70
2022-08-11T11:47:13.217Z,33.70
2022-08-11T11:49:42.643Z,33.30
2022-08-11T11:52:18.731Z,33.20
2022-08-11T11:54:47.551Z,33.10
2022-08-11T11:57:16.536Z,33.60
2022-08-11T11:59:43.392Z,33.10
2022-08-11T12:02:35.470Z,33.50
2022-08-11T12:05:00.584Z,33.00
2022-08-11T12:07:37.515Z,32.20
2022-08-11T12:10:04.822Z,32.70
2022-08-11T12:12:44.818Z,32.00
2022-08-11T12:15:12.450Z,32.50
2022-08-11T12:17:39.733Z,32.20
2022-08-11T12:20:34.044Z,31.50
2022-08-11T12:23:01.560Z,31.50
2022-08-11T12:25:28.302Z,32.20
2022-08-11T12:28:07.342Z,31.70
2022-08-11T12:30:34.284Z,31.80
2022-08-11T12:36:01.260Z,32.50
2022-08-11T12:38:35.555Z,32.90
2022-08-11T12:41:14.988Z,32.00
2022-08-11T12:43:57.233Z,32.10
2022-08-11T12:46:37.561Z,31.30
2022-08-11T12:49:23.645Z,31.80
2022-08-11T12:52:14.837Z,31.70
2022-08-11T12:55:10.994Z,31.60
2022-08-11T12:57:45.419Z,31.20
2022-08-11T13:00:16.726Z,31.20
2022-08-11T13:02:45.533Z,31.10
2022-08-11T13:08:28.476Z,31.10
2022-08-11T13:11:09.419Z,31.70
2022-08-11T13:13:57.404Z,31.40
2022-08-11T13:16:39.595Z,31.30
2022-08-11T13:19:29.256Z,31.50
2022-08-11T13:21:54.513Z,30.90
2022-08-11T13:24:22.428Z,31.70
2022-08-11T13:26:50.771Z,31.40
2022-08-11T13:29:33.046Z,30.70
2022-08-11T13:32:05.775Z,31.00
2022-08-11T13:34:33.516Z,31.60
2022-08-11T13:38:19.561Z,31.00
2022-08-11T13:43:13.439Z,30.90
2022-08-11T13:45:42.067Z,31.30
2022-08-11T13:48:26.606Z,31.20
2022-08-11T13:50:53.372Z,30.80
2022-08-11T13:53:26.109Z,30.60
2022-08-11T13:55:53.858Z,30.80
2022-08-11T13:58:40.225Z,31.00
2022-08-11T14:02:03.317Z,30.40
2022-08-11T14:04:31.055Z,31.00
2022-08-11T14:06:58.185Z,31.20
2022-08-11T14:09:39.335Z,30.80
2022-08-11T14:12:25.936Z,30.80
2022-08-11T14:15:41.919Z,30.60
2022-08-11T14:18:26.934Z,30.10
2022-08-11T14:21:16.928Z,31.10
2022-08-11T14:23:57.044Z,31.90
2022-08-11T14:26:39.877Z,29.70
2022-08-11T14:34:44.335Z,29.70
2022-08-11T14:37:29.325Z,31.40
2022-08-11T14:42:41.850Z,34.90
2022-08-11T14:45:11.691Z,35.20
2022-08-11T14:47:51.045Z,36.20
2022-08-11T14:50:34.521Z,37.10
2022-08-11T14:53:27.725Z,37.40
2022-08-11T14:55:55.122Z,37.70
2022-08-11T14:58:28.909Z,37.60
2022-08-11T15:01:07.983Z,36.90
2022-08-11T15:03:34.792Z,37.20
2022-08-11T15:06:14.970Z,37.70
2022-08-11T15:08:56.637Z,36.20
2022-08-11T15:11:49.751Z,36.60
2022-08-11T15:14:17.555Z,36.70
2022-08-11T15:16:50.372Z,37.10
2022-08-11T15:19:20.829Z,37.20
2022-08-11T15:21:53.812Z,37.50
2022-08-11T15:24:21.836Z,38.20
2022-08-11T15:27:04.416Z,38.70
2022-08-11T15:32:28.097Z,38.70
2022-08-11T15:35:03.292Z,37.30
2022-08-11T15:37:40.865Z,37.50
2022-08-11T15:40:31.974Z,37.30
2022-08-11T15:43:24.612Z,37.80
2022-08-11T15:45:56.596Z,38.10
2022-08-11T15:49:09.334Z,34.10
2022-08-11T15:52:00.375Z,31.80
2022-08-11T15:54:49.480Z,36.40
2022-08-11T15:57:39.526Z,32.40
2022-08-11T16:00:24.502Z,32.00
2022-08-11T16:02:53.164Z,32.20
2022-08-11T16:05:46.523Z,32.50
2022-08-11T16:08:32.864Z,32.80
2022-08-11T16:11:19.902Z,32.10
2022-08-11T16:14:06.903Z,32.20
2022-08-11T16:16:34.819Z,32.40
2022-08-11T16:19:18.614Z,32.70
2022-08-11T16:21:58.305Z,32.50
2022-08-11T16:27:01.288Z,32.40
2022-08-11T16:27:24.433Z,32.70
2022-08-11T16:29:53.182Z,33.10
2022-08-11T16:32:39.405Z,33.20
2022-08-11T16:35:29.699Z,33.30
2022-08-11T16:37:57.859Z,33.60
2022-08-11T16:43:28.601Z,33.20
2022-08-11T16:46:13.653Z,33.50
2022-08-11T16:51:24.285Z,33.90
2022-08-11T16:54:04.543Z,34.00
2022-08-11T16:56:50.918Z,34.30
2022-08-11T16:59:32.807Z,34.70
2022-08-11T17:02:21.697Z,34.60
2022-08-11T17:04:54.967Z,34.80
2022-08-11T17:07:43.309Z,34.60
2022-08-11T17:10:51.797Z,34.60
2022-08-11T17:16:39.201Z,34.80
2022-08-11T17:20:40.963Z,34.70
2022-08-11T17:22:12.757Z,35.20
2022-08-11T17:24:47.537Z,35.50
2022-08-11T17:27:16.889Z,35.60
2022-08-11T17:29:57.355Z,35.30
2022-08-11T17:32:56.129Z,35.10
2022-08-11T17:35:27.877Z,35.10
2022-08-11T17:41:22.969Z,35.30
2022-08-11T17:44:03.834Z,35.60
2022-08-11T17:46:31.251Z,35.40
2022-08-11T17:49:08.847Z,35.70
2022-08-11T17:54:25.009Z,35.80
2022-08-11T17:56:52.956Z,36.10
2022-08-11T17:59:20.347Z,36.30
2022-08-11T18:02:00.549Z,36.70
2022-08-11T18:04:31.961Z,36.90
2022-08-11T18:06:58.723Z,37.10
2022-08-11T18:09:40.984Z,37.30
2022-08-11T18:12:11.534Z,37.40
2022-08-11T18:14:54.152Z,37.40
2022-08-11T18:17:26.915Z,37.20
2022-08-11T18:20:09.241Z,37.10
2022-08-11T18:25:45.475Z,37.30
2022-08-11T18:28:15.064Z,40.90
2022-08-11T18:31:03.668Z,42.80
2022-08-11T18:34:06.563Z,45.50
2022-08-11T18:36:59.378Z,46.60
2022-08-11T18:39:32.101Z,47.00
2022-08-11T18:42:08.511Z,47.20
2022-08-11T18:44:41.675Z,47.70
2022-08-11T18:47:11.846Z,48.10
2022-08-11T18:50:04.066Z,48.50
2022-08-11T18:52:33.242Z,48.90
2022-08-11T18:55:03.513Z,49.30
2022-08-11T18:57:49.718Z,49.90
2022-08-11T19:00:34.767Z,49.70
2022-08-11T19:03:14.469Z,49.80
2022-08-11T19:06:32.565Z,50.00
2022-08-11T19:08:38.909Z,50.20
2022-08-11T19:14:10.491Z,50.80
2022-08-11T19:16:37.997Z,50.90
2022-08-11T19:19:20.344Z,51.20
2022-08-11T19:21:48.468Z,51.30
2022-08-11T19:24:31.847Z,51.30
2022-08-11T19:30:07.807Z,51.30
2022-08-11T19:32:30.090Z,51.30
2022-08-11T19:35:11.210Z,51.40
2022-08-11T19:40:37.433Z,51.50
2022-08-11T19:43:18.761Z,51.70
2022-08-11T19:48:37.281Z,52.00
2022-08-11T19:51:04.317Z,52.20
2022-08-11T19:53:44.730Z,52.20
2022-08-11T19:56:18.004Z,52.30
2022-08-11T19:58:52.034Z,52.30
2022-08-11T20:01:18.829Z,52.30
2022-08-11T20:03:54.897Z,52.50
2022-08-11T20:06:22.894Z,52.80
2022-08-11T20:09:05.854Z,52.80
2022-08-11T20:11:42.101Z,53.20
2022-08-11T20:14:13.881Z,53.40
2022-08-11T20:16:59.847Z,53.50
2022-08-11T20:19:55.445Z,53.90
2022-08-11T20:25:08.776Z,53.80
2022-08-11T20:27:44.545Z,54.10
2022-08-11T20:30:26.647Z,54.30
2022-08-11T20:32:53.457Z,54.30
2022-08-11T20:35:26.524Z,54.50
2022-08-11T20:37:55.210Z,54.50
2022-08-11T20:40:25.240Z,54.60
2022-08-11T20:42:53.680Z,54.80
2022-08-11T20:45:24.052Z,55.10
2022-08-11T20:48:04.929Z,55.30
2022-08-11T20:50:37.823Z,55.60
2022-08-11T20:56:28.624Z,55.60
2022-08-11T20:59:17.424Z,55.20
2022-08-11T21:02:03.113Z,55.10
2022-08-11T21:04:35.674Z,55.10
2022-08-11T21:07:23.475Z,54.70
2022-08-11T21:10:09.731Z,54.50
2022-08-11T21:16:01.788Z,54.30
2022-08-11T21:18:29.722Z,54.20
2022-08-11T21:21:07.213Z,54.30
2022-08-11T21:23:44.244Z,54.30
2022-08-11T21:26:13.583Z,54.30
2022-08-11T21:28:44.806Z,54.40
2022-08-11T21:31:25.385Z,54.60
2022-08-11T21:34:06.052Z,54.50
2022-08-11T21:36:41.413Z,54.70
2022-08-11T21:39:11.212Z,54.80
2022-08-11T21:41:39.654Z,55.00
2022-08-11T21:44:17.903Z,55.10
2022-08-11T21:46:54.783Z,55.30
2022-08-11T21:49:23.043Z,55.40
2022-08-11T21:52:02.105Z,55.50
2022-08-11T21:54:29.043Z,55.60
2022-08-11T21:56:59.165Z,55.70
2022-08-11T21:59:48.269Z,56.00
2022-08-11T22:02:26.168Z,56.20
2022-08-11T22:04:53.576Z,56.40
2022-08-11T22:07:22.153Z,56.60
2022-08-11T22:10:27.644Z,56.70
2022-08-11T22:15:07.700Z,57.40
2022-08-11T22:17:46.861Z,57.40
2022-08-11T22:20:33.669Z,57.70
2022-08-11T22:28:43.467Z,58.10
2022-08-11T22:45:28.310Z,59.10
2022-08-11T22:47:56.780Z,59.10
2022-08-11T22:56:52.612Z,59.50
2022-08-11T23:00:01.412Z,59.90
2022-08-11T23:02:57.805Z,59.80
2022-08-11T23:05:34.477Z,60.00
2022-08-11T23:08:23.133Z,59.80
2022-08-11T23:11:08.269Z,60.10
2022-08-11T23:20:52.890Z,60.50
2022-08-11T23:23:37.513Z,60.60
2022-08-11T23:26:20.059Z,60.70
2022-08-11T23:31:54.393Z,60.70
2022-08-11T23:34:41.540Z,60.90
2022-08-11T23:37:09.035Z,60.90
2022-08-11T23:59:13.821Z,61.30
